FJI822 NFFN-PLCH
Flight info
| Callsign | FJI822 |
|---|---|
| Flight time | N/A |
| Altitude | 35000 |
| Route | PANDO B577 PUKET/M078F370 B577 PARZO DCT 14S177W DCT KETUS DCT PUPIS DCT 09S170W 05S166W 04S165W 00N160W DCT XI DCT |
| Aircraft | B38M/M-SDE1FGHIJ4J7LMRWXZ/LB1 |
Departure
| Time | 2026-05-06 21:42 |
|---|---|
| Airport | Nadi International Airport (NFFN) |
Arrival
| Time | N/A |
|---|---|
| Airport | Cassidy International Airport (PLCH) |
| Time | Latitude | Longitude | Altitude | Speed | Heading |
|---|---|---|---|---|---|
| 2026-05-06 20:57 | -17.75255 | 177.44997 | 49 ft | 0 kts | 104° |
| 2026-05-06 21:34 | -17.75254 | 177.44992 | 49 ft | 2 kts | 103° |
| 2026-05-06 21:34 | -17.75249 | 177.44965 | 49 ft | 4 kts | 101° |
| 2026-05-06 21:34 | -17.75246 | 177.44940 | 49 ft | 4 kts | 77° |
| 2026-05-06 21:35 | -17.75259 | 177.44922 | 49 ft | 4 kts | 20° |
| 2026-05-06 21:35 | -17.75276 | 177.44917 | 49 ft | 1 kts | 14° |
| 2026-05-06 21:35 | -17.75278 | 177.44917 | 49 ft | 0 kts | 14° |
| 2026-05-06 21:39 | -17.75276 | 177.44917 | 49 ft | 3 kts | 14° |
| 2026-05-06 21:39 | -17.75223 | 177.44931 | 47 ft | 13 kts | 14° |
| 2026-05-06 21:40 | -17.75133 | 177.44955 | 48 ft | 9 kts | 14° |
| 2026-05-06 21:40 | -17.75067 | 177.44961 | 47 ft | 10 kts | 335° |
| 2026-05-06 21:40 | -17.75036 | 177.44898 | 48 ft | 11 kts | 285° |
| 2026-05-06 21:40 | -17.75018 | 177.44819 | 49 ft | 12 kts | 282° |
| 2026-05-06 21:41 | -17.75008 | 177.44764 | 48 ft | 4 kts | 281° |
| 2026-05-06 21:41 | -17.75008 | 177.44733 | 48 ft | 4 kts | 232° |
| 2026-05-06 21:41 | -17.75031 | 177.44714 | 46 ft | 5 kts | 224° |
| 2026-05-06 21:41 | -17.75076 | 177.44675 | 45 ft | 20 kts | 219° |
| 2026-05-06 21:42 | -17.75402 | 177.44412 | 47 ft | 95 kts | 217° |
| 2026-05-06 21:42 | -17.76104 | 177.43848 | 48 ft | 157 kts | 218° |
| 2026-05-06 21:42 | -17.77075 | 177.43067 | 309 ft | 185 kts | 217° |
| 2026-05-06 21:42 | -17.78104 | 177.42267 | 1120 ft | 188 kts | 216° |
| 2026-05-06 21:43 | -17.79190 | 177.41404 | 1780 ft | 197 kts | 218° |
| 2026-05-06 21:43 | -17.80125 | 177.40628 | 2257 ft | 211 kts | 217° |
| 2026-05-06 21:43 | -17.81354 | 177.39607 | 2578 ft | 241 kts | 218° |
| 2026-05-06 21:43 | -17.82686 | 177.38490 | 3359 ft | 244 kts | 217° |
| 2026-05-06 21:44 | -17.84053 | 177.37339 | 3989 ft | 261 kts | 217° |
| 2026-05-06 21:44 | -17.85506 | 177.36118 | 4640 ft | 272 kts | 217° |
| 2026-05-06 21:44 | -17.86998 | 177.34868 | 5487 ft | 276 kts | 219° |
| 2026-05-06 21:44 | -17.88205 | 177.33299 | 6337 ft | 280 kts | 245° |
| 2026-05-06 21:45 | -17.88642 | 177.31300 | 7122 ft | 286 kts | 271° |
| 2026-05-06 21:45 | -17.88293 | 177.29240 | 7871 ft | 292 kts | 292° |
| 2026-05-06 21:45 | -17.87194 | 177.27456 | 8606 ft | 294 kts | 316° |
| 2026-05-06 21:45 | -17.85483 | 177.26295 | 9288 ft | 296 kts | 343° |
| 2026-05-06 21:46 | -17.83449 | 177.26092 | 9942 ft | 297 kts | 11° |
| 2026-05-06 21:46 | -17.81509 | 177.26860 | 10479 ft | 306 kts | 35° |
| 2026-05-06 21:46 | -17.79824 | 177.28269 | 10809 ft | 321 kts | 37° |
| 2026-05-06 21:46 | -17.77994 | 177.29692 | 11202 ft | 334 kts | 37° |
| 2026-05-06 21:47 | -17.76288 | 177.31023 | 11617 ft | 344 kts | 38° |
| 2026-05-06 21:47 | -17.74865 | 177.32503 | 12098 ft | 346 kts | 54° |
| 2026-05-06 21:47 | -17.73587 | 177.34658 | 12710 ft | 351 kts | 58° |
| 2026-05-06 21:47 | -17.72282 | 177.36832 | 13313 ft | 354 kts | 58° |
| 2026-05-06 21:48 | -17.70954 | 177.39019 | 13899 ft | 358 kts | 57° |
| 2026-05-06 21:48 | -17.69604 | 177.41234 | 14475 ft | 361 kts | 57° |
| 2026-05-06 21:48 | -17.68240 | 177.43465 | 15032 ft | 364 kts | 57° |
| 2026-05-06 21:48 | -17.66864 | 177.45714 | 15582 ft | 368 kts | 57° |
| 2026-05-06 21:49 | -17.65477 | 177.47979 | 16121 ft | 371 kts | 57° |
| 2026-05-06 21:49 | -17.64553 | 177.49488 | 16450 ft | 373 kts | 57° |
| 2026-05-06 21:49 | -17.61421 | 177.54600 | 17528 ft | 379 kts | 57° |
| 2026-05-06 21:50 | -17.59988 | 177.56938 | 17983 ft | 382 kts | 57° |
| 2026-05-06 21:50 | -17.58547 | 177.59289 | 18426 ft | 385 kts | 57° |
| 2026-05-06 21:50 | -17.57094 | 177.61655 | 18861 ft | 387 kts | 57° |
| 2026-05-06 21:50 | -17.55638 | 177.64030 | 19272 ft | 390 kts | 57° |
| 2026-05-06 21:51 | -17.54164 | 177.66431 | 19682 ft | 393 kts | 56° |
| 2026-05-06 21:51 | -17.52683 | 177.68842 | 20078 ft | 395 kts | 56° |
| 2026-05-06 21:51 | -17.51193 | 177.71268 | 20460 ft | 397 kts | 56° |
| 2026-05-06 21:51 | -17.49690 | 177.73713 | 20831 ft | 399 kts | 56° |
| 2026-05-06 21:52 | -17.48180 | 177.76169 | 21204 ft | 402 kts | 56° |
| 2026-05-06 21:52 | -17.46664 | 177.78635 | 21572 ft | 404 kts | 56° |
| 2026-05-06 21:52 | -17.45136 | 177.81119 | 21932 ft | 406 kts | 56° |
| 2026-05-06 21:52 | -17.43602 | 177.83611 | 22281 ft | 409 kts | 56° |
| 2026-05-06 21:53 | -17.42058 | 177.86119 | 22625 ft | 411 kts | 56° |
| 2026-05-06 21:53 | -17.40503 | 177.88643 | 22962 ft | 413 kts | 56° |
| 2026-05-06 21:53 | -17.38943 | 177.91175 | 23302 ft | 415 kts | 56° |
| 2026-05-06 21:53 | -17.37395 | 177.93688 | 23620 ft | 417 kts | 56° |
| 2026-05-06 21:54 | -17.35799 | 177.96277 | 23939 ft | 419 kts | 56° |
| 2026-05-06 21:54 | -17.34234 | 177.98812 | 24263 ft | 421 kts | 56° |
| 2026-05-06 21:54 | -17.32641 | 178.01394 | 24568 ft | 423 kts | 56° |
| 2026-05-06 21:54 | -17.31036 | 178.03995 | 24879 ft | 425 kts | 56° |
| 2026-05-06 21:55 | -17.29427 | 178.06599 | 25182 ft | 428 kts | 56° |
| 2026-05-06 21:55 | -17.27807 | 178.09222 | 25490 ft | 430 kts | 56° |
| 2026-05-06 21:55 | -17.26183 | 178.11850 | 25783 ft | 432 kts | 56° |
| 2026-05-06 21:55 | -17.24546 | 178.14498 | 26073 ft | 433 kts | 56° |
| 2026-05-06 21:56 | -17.22904 | 178.17154 | 26348 ft | 436 kts | 56° |
| 2026-05-06 21:56 | -17.21255 | 178.19818 | 26628 ft | 438 kts | 56° |
| 2026-05-06 21:56 | -17.19597 | 178.22497 | 26911 ft | 440 kts | 56° |
| 2026-05-06 21:56 | -17.17932 | 178.25186 | 27187 ft | 441 kts | 56° |
| 2026-05-06 21:57 | -17.16261 | 178.27883 | 27459 ft | 443 kts | 56° |
| 2026-05-06 21:57 | -17.14581 | 178.30596 | 27725 ft | 445 kts | 56° |
| 2026-05-06 21:57 | -17.12890 | 178.33323 | 27977 ft | 447 kts | 56° |
| 2026-05-06 21:57 | -17.11194 | 178.36057 | 28232 ft | 449 kts | 56° |
| 2026-05-06 21:58 | -17.09490 | 178.38804 | 28478 ft | 451 kts | 56° |
| 2026-05-06 21:58 | -17.07782 | 178.41556 | 28715 ft | 452 kts | 56° |
| 2026-05-06 21:58 | -17.06068 | 178.44316 | 28926 ft | 454 kts | 56° |
| 2026-05-06 21:58 | -17.04344 | 178.47092 | 29159 ft | 456 kts | 56° |
| 2026-05-06 21:59 | -17.02617 | 178.49871 | 29388 ft | 457 kts | 56° |
| 2026-05-06 21:59 | -17.00882 | 178.52662 | 29607 ft | 459 kts | 56° |
| 2026-05-06 21:59 | -16.99138 | 178.55466 | 29825 ft | 461 kts | 56° |
| 2026-05-06 21:59 | -16.97386 | 178.58281 | 30049 ft | 462 kts | 56° |
| 2026-05-06 22:00 | -16.95631 | 178.61101 | 30258 ft | 464 kts | 56° |
| 2026-05-06 22:00 | -16.93870 | 178.63930 | 30472 ft | 465 kts | 56° |
| 2026-05-06 22:00 | -16.92103 | 178.66767 | 30668 ft | 467 kts | 56° |
| 2026-05-06 22:00 | -16.90331 | 178.69612 | 30879 ft | 468 kts | 56° |
| 2026-05-06 22:01 | -16.88554 | 178.72461 | 31085 ft | 470 kts | 56° |
| 2026-05-06 22:01 | -16.86768 | 178.75325 | 31279 ft | 471 kts | 56° |
| 2026-05-06 22:01 | -16.84979 | 178.78192 | 31484 ft | 472 kts | 56° |
| 2026-05-06 22:01 | -16.83180 | 178.81074 | 31666 ft | 474 kts | 56° |
| 2026-05-06 22:02 | -16.81376 | 178.83962 | 31872 ft | 475 kts | 56° |
| 2026-05-06 22:02 | -16.79572 | 178.86851 | 32102 ft | 475 kts | 56° |
| 2026-05-06 22:02 | -16.77690 | 178.89680 | 32369 ft | 474 kts | 52° |
| 2026-05-06 22:02 | -16.75766 | 178.92407 | 32622 ft | 473 kts | 53° |
| 2026-05-06 22:03 | -16.73827 | 178.95184 | 32871 ft | 473 kts | 53° |
| 2026-05-06 22:03 | -16.71899 | 178.97953 | 33150 ft | 472 kts | 53° |
| 2026-05-06 22:03 | -16.69976 | 179.00719 | 33405 ft | 471 kts | 53° |
| 2026-05-06 22:03 | -16.68051 | 179.03486 | 33684 ft | 470 kts | 53° |
| 2026-05-06 22:04 | -16.66133 | 179.06242 | 33931 ft | 469 kts | 53° |
| 2026-05-06 22:04 | -16.64218 | 179.08994 | 34179 ft | 468 kts | 53° |
| 2026-05-06 22:04 | -16.62304 | 179.11742 | 34410 ft | 468 kts | 53° |
| 2026-05-06 22:04 | -16.60393 | 179.14486 | 34618 ft | 468 kts | 53° |
| 2026-05-06 22:05 | -16.58480 | 179.17231 | 34813 ft | 468 kts | 53° |
| 2026-05-06 22:05 | -16.56565 | 179.19976 | 35000 ft | 468 kts | 53° |
| 2026-05-06 22:05 | -16.52736 | 179.25466 | 35013 ft | 467 kts | 53° |
| 2026-05-06 22:06 | -16.48912 | 179.30945 | 35016 ft | 467 kts | 53° |
| 2026-05-06 22:06 | -16.45111 | 179.36385 | 35021 ft | 467 kts | 53° |
| 2026-05-06 22:07 | -16.41288 | 179.41854 | 35022 ft | 467 kts | 53° |
| 2026-05-06 22:07 | -16.37461 | 179.47322 | 35016 ft | 467 kts | 53° |
| 2026-05-06 22:08 | -16.33629 | 179.52795 | 35015 ft | 467 kts | 53° |
| 2026-05-06 22:08 | -16.29800 | 179.58258 | 35019 ft | 467 kts | 53° |
| 2026-05-06 22:09 | -16.25969 | 179.63721 | 35017 ft | 467 kts | 53° |
| 2026-05-06 22:09 | -16.22137 | 179.69181 | 35016 ft | 467 kts | 53° |
| 2026-05-06 22:10 | -16.18304 | 179.74640 | 35009 ft | 467 kts | 53° |
| 2026-05-06 22:10 | -16.14479 | 179.80082 | 35012 ft | 467 kts | 53° |
| 2026-05-06 22:11 | -16.10665 | 179.85503 | 35009 ft | 467 kts | 53° |
| 2026-05-06 22:11 | -16.06830 | 179.90951 | 35008 ft | 467 kts | 53° |
| 2026-05-06 22:12 | -16.02993 | 179.96398 | 35010 ft | 467 kts | 53° |
| 2026-05-06 22:12 | -15.99155 | -179.98158 | 35005 ft | 467 kts | 53° |
| 2026-05-06 22:13 | -15.95316 | -179.92716 | 35007 ft | 467 kts | 53° |
| 2026-05-06 22:13 | -15.91473 | -179.87273 | 35011 ft | 467 kts | 53° |
| 2026-05-06 22:14 | -15.87634 | -179.81839 | 35015 ft | 467 kts | 53° |
| 2026-05-06 22:14 | -15.83799 | -179.76416 | 35007 ft | 467 kts | 53° |
| 2026-05-06 22:15 | -15.79952 | -179.70980 | 34986 ft | 467 kts | 53° |
| 2026-05-06 22:15 | -15.76135 | -179.65588 | 34982 ft | 466 kts | 53° |
| 2026-05-06 22:16 | -15.72290 | -179.60161 | 34978 ft | 466 kts | 53° |
| 2026-05-06 22:16 | -15.68448 | -179.54744 | 34982 ft | 467 kts | 53° |
| 2026-05-06 22:17 | -15.64602 | -179.49324 | 34978 ft | 467 kts | 53° |
| 2026-05-06 22:17 | -15.60751 | -179.43902 | 34979 ft | 467 kts | 53° |
| 2026-05-06 22:18 | -15.56902 | -179.38484 | 34980 ft | 467 kts | 53° |
| 2026-05-06 22:18 | -15.53055 | -179.33075 | 34980 ft | 467 kts | 53° |
| 2026-05-06 22:19 | -15.49193 | -179.27649 | 34979 ft | 467 kts | 53° |
| 2026-05-06 22:19 | -15.45333 | -179.22229 | 34981 ft | 467 kts | 53° |
| 2026-05-06 22:20 | -15.41479 | -179.16820 | 34979 ft | 467 kts | 53° |
| 2026-05-06 22:20 | -15.37619 | -179.11407 | 34982 ft | 467 kts | 53° |
| 2026-05-06 22:21 | -15.33760 | -179.05999 | 34981 ft | 467 kts | 53° |
| 2026-05-06 22:21 | -15.29893 | -179.00585 | 34979 ft | 467 kts | 53° |
| 2026-05-06 22:22 | -15.26031 | -178.95182 | 34979 ft | 467 kts | 53° |
| 2026-05-06 22:22 | -15.22163 | -178.89771 | 34980 ft | 467 kts | 53° |
| 2026-05-06 22:23 | -15.18318 | -178.84397 | 34979 ft | 467 kts | 53° |
| 2026-05-06 22:23 | -15.14452 | -178.78996 | 34980 ft | 467 kts | 53° |
| 2026-05-06 22:24 | -15.10589 | -178.73605 | 34982 ft | 468 kts | 53° |
| 2026-05-06 22:24 | -15.06715 | -178.68201 | 34980 ft | 467 kts | 53° |
| 2026-05-06 22:25 | -15.02844 | -178.62805 | 34979 ft | 467 kts | 53° |
| 2026-05-06 22:25 | -14.99674 | -178.58228 | 34974 ft | 467 kts | 58° |
| 2026-05-06 22:26 | -14.95629 | -178.51637 | 34972 ft | 468 kts | 57° |
| 2026-05-06 22:26 | -14.92102 | -178.45986 | 34981 ft | 468 kts | 57° |
| 2026-05-06 22:27 | -14.88573 | -178.40342 | 34980 ft | 467 kts | 57° |
| 2026-05-06 22:27 | -14.85042 | -178.34701 | 34980 ft | 467 kts | 57° |
| 2026-05-06 22:28 | -14.81506 | -178.29054 | 34981 ft | 467 kts | 57° |
| 2026-05-06 22:28 | -14.77972 | -178.23416 | 34981 ft | 467 kts | 57° |
| 2026-05-06 22:29 | -14.74451 | -178.17801 | 34980 ft | 467 kts | 57° |
| 2026-05-06 22:29 | -14.70917 | -178.12170 | 34980 ft | 467 kts | 57° |
| 2026-05-06 22:30 | -14.67385 | -178.06547 | 34980 ft | 467 kts | 57° |
| 2026-05-06 22:30 | -14.63848 | -178.00921 | 34980 ft | 467 kts | 57° |
| 2026-05-06 22:31 | -14.60315 | -177.95302 | 34980 ft | 467 kts | 57° |
| 2026-05-06 22:31 | -14.57369 | -177.90622 | 34982 ft | 467 kts | 57° |
| 2026-05-06 22:32 | -14.53831 | -177.85003 | 34980 ft | 467 kts | 57° |
| 2026-05-06 22:32 | -14.50283 | -177.79374 | 34981 ft | 467 kts | 57° |
| 2026-05-06 22:33 | -14.46743 | -177.73761 | 34980 ft | 467 kts | 57° |
| 2026-05-06 22:33 | -14.43194 | -177.68138 | 34981 ft | 467 kts | 57° |
| 2026-05-06 22:34 | -14.39653 | -177.62530 | 34981 ft | 467 kts | 57° |
| 2026-05-06 22:34 | -14.36105 | -177.56916 | 34980 ft | 467 kts | 57° |
| 2026-05-06 22:35 | -14.32555 | -177.51303 | 34982 ft | 467 kts | 57° |
| 2026-05-06 22:35 | -14.29007 | -177.45696 | 34963 ft | 467 kts | 57° |
| 2026-05-06 22:36 | -14.25477 | -177.40122 | 34955 ft | 467 kts | 57° |
| 2026-05-06 22:36 | -14.21921 | -177.34510 | 34951 ft | 468 kts | 57° |
| 2026-05-06 22:37 | -14.18361 | -177.28897 | 34960 ft | 468 kts | 57° |
| 2026-05-06 22:37 | -14.14807 | -177.23295 | 34961 ft | 468 kts | 57° |
| 2026-05-06 22:38 | -14.11237 | -177.17672 | 34959 ft | 468 kts | 57° |
| 2026-05-06 22:38 | -14.07670 | -177.12059 | 34954 ft | 468 kts | 57° |
| 2026-05-06 22:39 | -14.04103 | -177.06448 | 34954 ft | 468 kts | 57° |
| 2026-05-06 22:39 | -14.00536 | -177.00833 | 34951 ft | 468 kts | 58° |
| 2026-05-06 22:40 | -13.97375 | -176.95006 | 34962 ft | 469 kts | 61° |
| 2026-05-06 22:40 | -13.94192 | -176.89174 | 34951 ft | 467 kts | 61° |
| 2026-05-06 22:41 | -13.89394 | -176.80436 | 34951 ft | 467 kts | 61° |
| 2026-05-06 22:42 | -13.86197 | -176.74618 | 34953 ft | 467 kts | 61° |
| 2026-05-06 22:42 | -13.82998 | -176.68802 | 34941 ft | 467 kts | 61° |
| 2026-05-06 22:43 | -13.79791 | -176.62974 | 34932 ft | 467 kts | 61° |
| 2026-05-06 22:43 | -13.76591 | -176.57166 | 34933 ft | 468 kts | 61° |
| 2026-05-06 22:44 | -13.73384 | -176.51346 | 34931 ft | 467 kts | 61° |
| 2026-05-06 22:44 | -13.70173 | -176.45524 | 34930 ft | 468 kts | 61° |
| 2026-05-06 22:45 | -13.66959 | -176.39700 | 34936 ft | 468 kts | 61° |
| 2026-05-06 22:45 | -13.63744 | -176.33879 | 34936 ft | 468 kts | 61° |
| 2026-05-06 22:46 | -13.60546 | -176.28093 | 34932 ft | 468 kts | 61° |
| 2026-05-06 22:46 | -13.57329 | -176.22277 | 34939 ft | 468 kts | 61° |
| 2026-05-06 22:47 | -13.54107 | -176.16455 | 34935 ft | 468 kts | 61° |
| 2026-05-06 22:47 | -13.50893 | -176.10652 | 34932 ft | 468 kts | 61° |
| 2026-05-06 22:48 | -13.47665 | -176.04828 | 34934 ft | 468 kts | 61° |
| 2026-05-06 22:48 | -13.44444 | -175.99019 | 34932 ft | 468 kts | 61° |
| 2026-05-06 22:49 | -13.41221 | -175.93212 | 34932 ft | 468 kts | 61° |
| 2026-05-06 22:49 | -13.37996 | -175.87404 | 34934 ft | 468 kts | 61° |
| 2026-05-06 22:50 | -13.34773 | -175.81604 | 34932 ft | 468 kts | 61° |
| 2026-05-06 22:50 | -13.31545 | -175.75800 | 34931 ft | 467 kts | 61° |
| 2026-05-06 22:51 | -13.28337 | -175.70035 | 34935 ft | 467 kts | 61° |
| 2026-05-06 22:51 | -13.25115 | -175.64249 | 34933 ft | 467 kts | 61° |
| 2026-05-06 22:52 | -13.21873 | -175.58430 | 34936 ft | 467 kts | 61° |
| 2026-05-06 22:52 | -13.18668 | -175.52681 | 34933 ft | 467 kts | 61° |
| 2026-05-06 22:53 | -13.15443 | -175.46902 | 34936 ft | 466 kts | 61° |
| 2026-05-06 22:53 | -13.12219 | -175.41129 | 34934 ft | 466 kts | 61° |
| 2026-05-06 22:54 | -13.08996 | -175.35359 | 34938 ft | 466 kts | 61° |
| 2026-05-06 22:54 | -13.05770 | -175.29589 | 34934 ft | 466 kts | 61° |
| 2026-05-06 22:55 | -13.02541 | -175.23817 | 34933 ft | 466 kts | 61° |
| 2026-05-06 22:55 | -12.99315 | -175.18055 | 34937 ft | 466 kts | 61° |
| 2026-05-06 22:56 | -12.96085 | -175.12290 | 34928 ft | 465 kts | 61° |
| 2026-05-06 22:56 | -12.92860 | -175.06535 | 34945 ft | 466 kts | 61° |
| 2026-05-06 22:57 | -12.89650 | -175.00811 | 34947 ft | 465 kts | 61° |
| 2026-05-06 22:57 | -12.86424 | -174.95065 | 34946 ft | 465 kts | 61° |
| 2026-05-06 22:58 | -12.83191 | -174.89308 | 34946 ft | 465 kts | 61° |
| 2026-05-06 22:58 | -12.79962 | -174.83562 | 34947 ft | 465 kts | 61° |
| 2026-05-06 22:59 | -12.76733 | -174.77818 | 34943 ft | 465 kts | 61° |
| 2026-05-06 22:59 | -12.73504 | -174.72081 | 34945 ft | 465 kts | 61° |
| 2026-05-06 23:00 | -12.70276 | -174.66347 | 34946 ft | 465 kts | 61° |
| 2026-05-06 23:00 | -12.67043 | -174.60610 | 34947 ft | 464 kts | 61° |
| 2026-05-06 23:01 | -12.63812 | -174.54879 | 34944 ft | 464 kts | 61° |
| 2026-05-06 23:01 | -12.60583 | -174.49154 | 34939 ft | 464 kts | 61° |
| 2026-05-06 23:02 | -12.57355 | -174.43434 | 34945 ft | 464 kts | 61° |
| 2026-05-06 23:02 | -12.54128 | -174.37720 | 34947 ft | 464 kts | 61° |
| 2026-05-06 23:03 | -12.50926 | -174.32054 | 34941 ft | 463 kts | 61° |
| 2026-05-06 23:03 | -12.47450 | -174.26512 | 34947 ft | 463 kts | 52° |
| 2026-05-06 23:04 | -12.43467 | -174.21305 | 34938 ft | 464 kts | 53° |
| 2026-05-06 23:04 | -12.39475 | -174.16104 | 34940 ft | 464 kts | 53° |
| 2026-05-06 23:05 | -12.35482 | -174.10908 | 34945 ft | 464 kts | 53° |
| 2026-05-06 23:05 | -12.31523 | -174.05759 | 34948 ft | 464 kts | 53° |
| 2026-05-06 23:06 | -12.27537 | -174.00578 | 34947 ft | 463 kts | 53° |
| 2026-05-06 23:06 | -12.23542 | -173.95388 | 34945 ft | 463 kts | 53° |
| 2026-05-06 23:07 | -12.19553 | -173.90210 | 34944 ft | 464 kts | 53° |
| 2026-05-06 23:07 | -12.15560 | -173.85028 | 34944 ft | 463 kts | 53° |
| 2026-05-06 23:08 | -12.11572 | -173.79856 | 34947 ft | 463 kts | 53° |
| 2026-05-06 23:08 | -12.07579 | -173.74679 | 34945 ft | 463 kts | 53° |
| 2026-05-06 23:09 | -12.03588 | -173.69509 | 34943 ft | 463 kts | 53° |
| 2026-05-06 23:09 | -11.99597 | -173.64341 | 34943 ft | 463 kts | 53° |
| 2026-05-06 23:10 | -11.95603 | -173.59173 | 34946 ft | 463 kts | 53° |
| 2026-05-06 23:10 | -11.91615 | -173.54013 | 34944 ft | 463 kts | 53° |
| 2026-05-06 23:11 | -11.87622 | -173.48852 | 34943 ft | 463 kts | 53° |
| 2026-05-06 23:11 | -11.83631 | -173.43695 | 34940 ft | 463 kts | 53° |
| 2026-05-06 23:12 | -11.79635 | -173.38535 | 34940 ft | 463 kts | 53° |
| 2026-05-06 23:12 | -11.75640 | -173.33378 | 34937 ft | 463 kts | 53° |
| 2026-05-06 23:13 | -11.71668 | -173.28254 | 34945 ft | 463 kts | 53° |
| 2026-05-06 23:13 | -11.67669 | -173.23097 | 34938 ft | 463 kts | 53° |
| 2026-05-06 23:14 | -11.63673 | -173.17947 | 34940 ft | 463 kts | 53° |
| 2026-05-06 23:14 | -11.60325 | -173.13635 | 34942 ft | 463 kts | 53° |
| 2026-05-06 23:15 | -11.56324 | -173.08483 | 34944 ft | 463 kts | 53° |
| 2026-05-06 23:15 | -11.52350 | -173.03369 | 34945 ft | 463 kts | 53° |
| 2026-05-06 23:16 | -11.48348 | -172.98222 | 34942 ft | 463 kts | 53° |
| 2026-05-06 23:16 | -11.44351 | -172.93084 | 34949 ft | 463 kts | 53° |
| 2026-05-06 23:17 | -11.40349 | -172.87941 | 34942 ft | 463 kts | 53° |
| 2026-05-06 23:17 | -11.36345 | -172.82800 | 34943 ft | 463 kts | 53° |
| 2026-05-06 23:18 | -11.32348 | -172.77668 | 34943 ft | 462 kts | 53° |
| 2026-05-06 23:18 | -11.28345 | -172.72532 | 34948 ft | 462 kts | 53° |
| 2026-05-06 23:19 | -11.24346 | -172.67405 | 34943 ft | 462 kts | 53° |
| 2026-05-06 23:19 | -11.20369 | -172.62307 | 34946 ft | 462 kts | 53° |
| 2026-05-06 23:20 | -11.16365 | -172.57178 | 34946 ft | 462 kts | 53° |
| 2026-05-06 23:20 | -11.12360 | -172.52050 | 34940 ft | 462 kts | 52° |
| 2026-05-06 23:21 | -11.08357 | -172.46927 | 34942 ft | 462 kts | 52° |
| 2026-05-06 23:21 | -11.04352 | -172.41803 | 34945 ft | 462 kts | 52° |
| 2026-05-06 23:22 | -11.00346 | -172.36681 | 34941 ft | 462 kts | 52° |
| 2026-05-06 23:22 | -10.96337 | -172.31558 | 34940 ft | 462 kts | 52° |
| 2026-05-06 23:23 | -10.92325 | -172.26434 | 34945 ft | 462 kts | 52° |
| 2026-05-06 23:23 | -10.88318 | -172.21318 | 34940 ft | 462 kts | 52° |
| 2026-05-06 23:24 | -10.84311 | -172.16205 | 34942 ft | 462 kts | 52° |
| 2026-05-06 23:24 | -10.80306 | -172.11097 | 34945 ft | 462 kts | 52° |
| 2026-05-06 23:25 | -10.76297 | -172.05986 | 34946 ft | 462 kts | 52° |
| 2026-05-06 23:25 | -10.72283 | -172.00871 | 34941 ft | 462 kts | 52° |
| 2026-05-06 23:26 | -10.68298 | -171.95796 | 34940 ft | 462 kts | 52° |
| 2026-05-06 23:26 | -10.64286 | -171.90688 | 34941 ft | 462 kts | 52° |
| 2026-05-06 23:27 | -10.60276 | -171.85585 | 34945 ft | 462 kts | 52° |
| 2026-05-06 23:27 | -10.56265 | -171.80483 | 34947 ft | 462 kts | 52° |
| 2026-05-06 23:28 | -10.52252 | -171.75382 | 34943 ft | 462 kts | 52° |
| 2026-05-06 23:28 | -10.48239 | -171.70282 | 34939 ft | 462 kts | 52° |
| 2026-05-06 23:29 | -10.44225 | -171.65184 | 34946 ft | 462 kts | 52° |
| 2026-05-06 23:29 | -10.40211 | -171.60088 | 34935 ft | 462 kts | 52° |
| 2026-05-06 23:30 | -10.36195 | -171.54993 | 34931 ft | 462 kts | 52° |
| 2026-05-06 23:30 | -10.32182 | -171.49903 | 34933 ft | 462 kts | 52° |
| 2026-05-06 23:31 | -10.28166 | -171.44811 | 34934 ft | 462 kts | 52° |
| 2026-05-06 23:31 | -10.24167 | -171.39743 | 34938 ft | 462 kts | 52° |
| 2026-05-06 23:32 | -10.20145 | -171.34647 | 34934 ft | 462 kts | 52° |
| 2026-05-06 23:32 | -10.16129 | -171.29563 | 34937 ft | 461 kts | 52° |
| 2026-05-06 23:33 | -10.12106 | -171.24471 | 34937 ft | 462 kts | 52° |
| 2026-05-06 23:33 | -10.08084 | -171.19382 | 34936 ft | 462 kts | 52° |
| 2026-05-06 23:34 | -10.04060 | -171.14294 | 34931 ft | 462 kts | 52° |
| 2026-05-06 23:34 | -10.00033 | -171.09265 | 34926 ft | 462 kts | 48° |
| 2026-05-06 23:35 | -9.95624 | -171.04518 | 34932 ft | 463 kts | 48° |
| 2026-05-06 23:35 | -9.91246 | -170.99726 | 34937 ft | 463 kts | 48° |
| 2026-05-06 23:36 | -9.86875 | -170.94931 | 34935 ft | 463 kts | 48° |
| 2026-05-06 23:36 | -9.82500 | -170.90132 | 34936 ft | 463 kts | 48° |
| 2026-05-06 23:37 | -9.78130 | -170.85341 | 34934 ft | 463 kts | 48° |
| 2026-05-06 23:37 | -9.73755 | -170.80545 | 34934 ft | 463 kts | 48° |
| 2026-05-06 23:38 | -9.69381 | -170.75753 | 34932 ft | 463 kts | 48° |
| 2026-05-06 23:38 | -9.65008 | -170.70964 | 34929 ft | 463 kts | 49° |
| 2026-05-06 23:39 | -9.60632 | -170.66173 | 34924 ft | 463 kts | 49° |
| 2026-05-06 23:39 | -9.56257 | -170.61386 | 34926 ft | 463 kts | 48° |
| 2026-05-06 23:40 | -9.51914 | -170.56636 | 34924 ft | 462 kts | 49° |
| 2026-05-06 23:40 | -9.47537 | -170.51850 | 34925 ft | 463 kts | 49° |
| 2026-05-06 23:41 | -9.43160 | -170.47068 | 34924 ft | 463 kts | 49° |
| 2026-05-06 23:41 | -9.38782 | -170.42284 | 34925 ft | 463 kts | 48° |
| 2026-05-06 23:42 | -9.34413 | -170.37513 | 34925 ft | 463 kts | 48° |
| 2026-05-06 23:42 | -9.30032 | -170.32730 | 34925 ft | 463 kts | 48° |
| 2026-05-06 23:43 | -9.25650 | -170.27949 | 34926 ft | 463 kts | 48° |
| 2026-05-06 23:43 | -9.21268 | -170.23170 | 34925 ft | 463 kts | 48° |
| 2026-05-06 23:44 | -9.16885 | -170.18391 | 34924 ft | 463 kts | 49° |
| 2026-05-06 23:44 | -9.12503 | -170.13614 | 34923 ft | 463 kts | 48° |
| 2026-05-06 23:45 | -9.08114 | -170.08832 | 34926 ft | 463 kts | 49° |
| 2026-05-06 23:45 | -9.03728 | -170.04056 | 34923 ft | 463 kts | 49° |
| 2026-05-06 23:46 | -8.99294 | -169.99334 | 34926 ft | 464 kts | 46° |
| 2026-05-06 23:46 | -8.94717 | -169.94724 | 34923 ft | 463 kts | 46° |
| 2026-05-06 23:47 | -8.90189 | -169.90135 | 34925 ft | 463 kts | 46° |
| 2026-05-06 23:47 | -8.85637 | -169.85523 | 34925 ft | 463 kts | 46° |
| 2026-05-06 23:48 | -8.81083 | -169.80910 | 34924 ft | 463 kts | 46° |
| 2026-05-06 23:48 | -8.76532 | -169.76301 | 34925 ft | 463 kts | 46° |
| 2026-05-06 23:49 | -8.71975 | -169.71689 | 34925 ft | 463 kts | 46° |
| 2026-05-06 23:49 | -8.67422 | -169.67083 | 34926 ft | 464 kts | 46° |
| 2026-05-06 23:50 | -8.62866 | -169.62474 | 34925 ft | 463 kts | 46° |
| 2026-05-06 23:50 | -8.56030 | -169.55563 | 34924 ft | 463 kts | 46° |
| 2026-05-06 23:51 | -8.51498 | -169.50983 | 34924 ft | 463 kts | 46° |
| 2026-05-06 23:51 | -8.46940 | -169.46378 | 34920 ft | 463 kts | 46° |
| 2026-05-06 23:52 | -8.42380 | -169.41774 | 34926 ft | 463 kts | 46° |
| 2026-05-06 23:52 | -8.37824 | -169.37174 | 34926 ft | 464 kts | 46° |
| 2026-05-06 23:53 | -8.33261 | -169.32569 | 34922 ft | 463 kts | 46° |
| 2026-05-06 23:53 | -8.28697 | -169.27965 | 34927 ft | 463 kts | 46° |
| 2026-05-06 23:54 | -8.24135 | -169.23365 | 34924 ft | 463 kts | 46° |
| 2026-05-06 23:54 | -8.19579 | -169.18772 | 34925 ft | 463 kts | 46° |
| 2026-05-06 23:55 | -8.15020 | -169.14178 | 34924 ft | 463 kts | 46° |
| 2026-05-06 23:55 | -8.10459 | -169.09583 | 34928 ft | 463 kts | 46° |
| 2026-05-06 23:56 | -8.05902 | -169.04994 | 34918 ft | 463 kts | 46° |
| 2026-05-06 23:56 | -8.02113 | -169.01180 | 34916 ft | 463 kts | 46° |
| 2026-05-06 23:57 | -7.96787 | -168.95819 | 34914 ft | 463 kts | 46° |
| 2026-05-06 23:57 | -7.93002 | -168.92011 | 34912 ft | 463 kts | 46° |
| 2026-05-06 23:58 | -7.88439 | -168.87422 | 34916 ft | 463 kts | 46° |
| 2026-05-06 23:58 | -7.83874 | -168.82833 | 34916 ft | 463 kts | 46° |
| 2026-05-06 23:59 | -7.79319 | -168.78254 | 34912 ft | 462 kts | 46° |
| 2026-05-06 23:59 | -7.74764 | -168.73678 | 34917 ft | 462 kts | 46° |
| 2026-05-07 00:00 | -7.70207 | -168.69100 | 34916 ft | 462 kts | 46° |
| 2026-05-07 00:00 | -7.65650 | -168.64524 | 34917 ft | 462 kts | 46° |
| 2026-05-07 00:01 | -7.61095 | -168.59952 | 34915 ft | 462 kts | 46° |
| 2026-05-07 00:01 | -7.56540 | -168.55381 | 34915 ft | 462 kts | 46° |
| 2026-05-07 00:02 | -7.51985 | -168.50812 | 34917 ft | 462 kts | 46° |
| 2026-05-07 00:02 | -7.47430 | -168.46244 | 34916 ft | 462 kts | 46° |
| 2026-05-07 00:03 | -7.42878 | -168.41680 | 34915 ft | 462 kts | 46° |
| 2026-05-07 00:03 | -7.38316 | -168.37108 | 34916 ft | 462 kts | 46° |
| 2026-05-07 00:04 | -7.33755 | -168.32538 | 34915 ft | 462 kts | 46° |
| 2026-05-07 00:04 | -7.29193 | -168.27969 | 34916 ft | 462 kts | 46° |
| 2026-05-07 00:05 | -7.24636 | -168.23406 | 34915 ft | 462 kts | 46° |
| 2026-05-07 00:05 | -7.20075 | -168.18839 | 34914 ft | 462 kts | 46° |
| 2026-05-07 00:06 | -7.15537 | -168.14299 | 34918 ft | 463 kts | 46° |
| 2026-05-07 00:06 | -7.10973 | -168.09733 | 34914 ft | 462 kts | 46° |
| 2026-05-07 00:07 | -7.06401 | -168.05160 | 34915 ft | 463 kts | 46° |
| 2026-05-07 00:07 | -7.01832 | -168.00593 | 34914 ft | 463 kts | 46° |
| 2026-05-07 00:08 | -6.97256 | -167.96019 | 34916 ft | 463 kts | 46° |
| 2026-05-07 00:08 | -6.92687 | -167.91453 | 34917 ft | 463 kts | 46° |
| 2026-05-07 00:09 | -6.88111 | -167.86882 | 34916 ft | 463 kts | 46° |
| 2026-05-07 00:09 | -6.83539 | -167.82316 | 34913 ft | 463 kts | 46° |
| 2026-05-07 00:10 | -6.78966 | -167.77750 | 34915 ft | 463 kts | 46° |
| 2026-05-07 00:10 | -6.74419 | -167.73213 | 34914 ft | 463 kts | 46° |
| 2026-05-07 00:11 | -6.69815 | -167.68618 | 34917 ft | 464 kts | 46° |
| 2026-05-07 00:11 | -6.65259 | -167.64074 | 34915 ft | 463 kts | 46° |
| 2026-05-07 00:12 | -6.60679 | -167.59507 | 34916 ft | 464 kts | 46° |
| 2026-05-07 00:12 | -6.56100 | -167.54941 | 34915 ft | 464 kts | 46° |
| 2026-05-07 00:13 | -6.51519 | -167.50375 | 34920 ft | 463 kts | 46° |
| 2026-05-07 00:13 | -6.46931 | -167.45803 | 34916 ft | 464 kts | 46° |
| 2026-05-07 00:14 | -6.42343 | -167.41233 | 34917 ft | 464 kts | 46° |
| 2026-05-07 00:14 | -6.37754 | -167.36662 | 34915 ft | 464 kts | 46° |
| 2026-05-07 00:15 | -6.33170 | -167.32099 | 34913 ft | 464 kts | 46° |
| 2026-05-07 00:15 | -6.28614 | -167.27564 | 34916 ft | 464 kts | 46° |
| 2026-05-07 00:16 | -6.24027 | -167.22999 | 34916 ft | 464 kts | 46° |
| 2026-05-07 00:16 | -6.19443 | -167.18439 | 34915 ft | 464 kts | 46° |
| 2026-05-07 00:17 | -6.14852 | -167.13873 | 34916 ft | 464 kts | 46° |
| 2026-05-07 00:17 | -6.10268 | -167.09315 | 34915 ft | 464 kts | 46° |
| 2026-05-07 00:18 | -6.05681 | -167.04755 | 34916 ft | 464 kts | 46° |
| 2026-05-07 00:18 | -6.01094 | -167.00196 | 34915 ft | 464 kts | 46° |
| 2026-05-07 00:19 | -5.96509 | -166.95641 | 34915 ft | 464 kts | 46° |
| 2026-05-07 00:19 | -5.91917 | -166.91080 | 34915 ft | 464 kts | 46° |
| 2026-05-07 00:20 | -5.87323 | -166.86517 | 34916 ft | 464 kts | 45° |
| 2026-05-07 00:20 | -5.82731 | -166.81958 | 34915 ft | 464 kts | 45° |
| 2026-05-07 00:21 | -5.78137 | -166.77398 | 34915 ft | 464 kts | 45° |
| 2026-05-07 00:21 | -5.73542 | -166.72838 | 34915 ft | 464 kts | 45° |
| 2026-05-07 00:22 | -5.68944 | -166.68276 | 34916 ft | 464 kts | 45° |
| 2026-05-07 00:22 | -5.64355 | -166.63724 | 34913 ft | 464 kts | 45° |
| 2026-05-07 00:23 | -5.59786 | -166.59193 | 34917 ft | 464 kts | 45° |
| 2026-05-07 00:23 | -5.55192 | -166.54639 | 34915 ft | 464 kts | 45° |
| 2026-05-07 00:24 | -5.50598 | -166.50085 | 34915 ft | 464 kts | 45° |
| 2026-05-07 00:24 | -5.46000 | -166.45529 | 34916 ft | 464 kts | 45° |
| 2026-05-07 00:25 | -5.41399 | -166.40970 | 34918 ft | 464 kts | 45° |
| 2026-05-07 00:25 | -5.36803 | -166.36418 | 34915 ft | 464 kts | 45° |
| 2026-05-07 00:26 | -5.32211 | -166.31870 | 34917 ft | 464 kts | 45° |
| 2026-05-07 00:26 | -5.27608 | -166.27313 | 34914 ft | 464 kts | 45° |
| 2026-05-07 00:27 | -5.23013 | -166.22764 | 34915 ft | 464 kts | 45° |
| 2026-05-07 00:27 | -5.18438 | -166.18236 | 34916 ft | 464 kts | 45° |
| 2026-05-07 00:28 | -5.13843 | -166.13689 | 34916 ft | 464 kts | 45° |
| 2026-05-07 00:28 | -5.09239 | -166.09135 | 34915 ft | 464 kts | 45° |
| 2026-05-07 00:29 | -5.04641 | -166.04587 | 34912 ft | 464 kts | 45° |
| 2026-05-07 00:30 | -4.95506 | -165.95481 | 34917 ft | 464 kts | 45° |
| 2026-05-07 00:30 | -4.90938 | -165.90905 | 34916 ft | 464 kts | 45° |
| 2026-05-07 00:31 | -4.86365 | -165.86326 | 34916 ft | 464 kts | 45° |
| 2026-05-07 00:31 | -4.81795 | -165.81750 | 34915 ft | 464 kts | 45° |
| 2026-05-07 00:32 | -4.77220 | -165.77170 | 34898 ft | 464 kts | 45° |
| 2026-05-07 00:32 | -4.72659 | -165.72606 | 34897 ft | 464 kts | 45° |
| 2026-05-07 00:33 | -4.68089 | -165.68033 | 34897 ft | 464 kts | 45° |
| 2026-05-07 00:33 | -4.63517 | -165.63459 | 34897 ft | 464 kts | 45° |
| 2026-05-07 00:34 | -4.58943 | -165.58884 | 34896 ft | 464 kts | 45° |
| 2026-05-07 00:34 | -4.54397 | -165.54337 | 34897 ft | 464 kts | 45° |
| 2026-05-07 00:35 | -4.49824 | -165.49765 | 34897 ft | 464 kts | 45° |
| 2026-05-07 00:35 | -4.45249 | -165.45191 | 34897 ft | 464 kts | 45° |
| 2026-05-07 00:36 | -4.40673 | -165.40617 | 34898 ft | 464 kts | 45° |
| 2026-05-07 00:36 | -4.36094 | -165.36041 | 34898 ft | 464 kts | 45° |
| 2026-05-07 00:37 | -4.31521 | -165.31471 | 34898 ft | 464 kts | 45° |
| 2026-05-07 00:37 | -4.26946 | -165.26902 | 34898 ft | 464 kts | 45° |
| 2026-05-07 00:38 | -4.22377 | -165.22338 | 34896 ft | 464 kts | 45° |
| 2026-05-07 00:38 | -4.17804 | -165.17772 | 34899 ft | 464 kts | 45° |
| 2026-05-07 00:39 | -4.13245 | -165.13221 | 34897 ft | 464 kts | 45° |
| 2026-05-07 00:39 | -4.08672 | -165.08655 | 34897 ft | 464 kts | 45° |
| 2026-05-07 00:40 | -4.04090 | -165.04081 | 34899 ft | 465 kts | 45° |
| 2026-05-07 00:40 | -3.99584 | -164.99440 | 34888 ft | 464 kts | 52° |
| 2026-05-07 00:41 | -3.96227 | -164.95248 | 34898 ft | 465 kts | 52° |
| 2026-05-07 00:41 | -3.92192 | -164.90184 | 34898 ft | 465 kts | 52° |
| 2026-05-07 00:42 | -3.88157 | -164.85114 | 34897 ft | 466 kts | 52° |
| 2026-05-07 00:42 | -3.84115 | -164.80035 | 34899 ft | 466 kts | 52° |
| 2026-05-07 00:43 | -3.80078 | -164.74964 | 34897 ft | 466 kts | 52° |
| 2026-05-07 00:43 | -3.76039 | -164.69890 | 34898 ft | 466 kts | 52° |
| 2026-05-07 00:44 | -3.72006 | -164.64825 | 34896 ft | 466 kts | 52° |
| 2026-05-07 00:44 | -3.67963 | -164.59749 | 34887 ft | 466 kts | 52° |
| 2026-05-07 00:45 | -3.63919 | -164.54672 | 34887 ft | 466 kts | 51° |
| 2026-05-07 00:45 | -3.59876 | -164.49596 | 34888 ft | 466 kts | 52° |
| 2026-05-07 00:46 | -3.55838 | -164.44528 | 34887 ft | 466 kts | 51° |
| 2026-05-07 00:46 | -3.51793 | -164.39452 | 34888 ft | 466 kts | 51° |
| 2026-05-07 00:47 | -3.47745 | -164.34373 | 34888 ft | 466 kts | 51° |
| 2026-05-07 00:47 | -3.43719 | -164.29323 | 34887 ft | 466 kts | 51° |
| 2026-05-07 00:48 | -3.39674 | -164.24248 | 34888 ft | 466 kts | 51° |
| 2026-05-07 00:48 | -3.35622 | -164.19168 | 34887 ft | 467 kts | 51° |
| 2026-05-07 00:49 | -3.31569 | -164.14085 | 34888 ft | 467 kts | 51° |
| 2026-05-07 00:49 | -3.27524 | -164.09014 | 34885 ft | 466 kts | 51° |
| 2026-05-07 00:50 | -3.23469 | -164.03930 | 34888 ft | 467 kts | 51° |
| 2026-05-07 00:50 | -3.19418 | -163.98853 | 34888 ft | 467 kts | 51° |
| 2026-05-07 00:51 | -3.15359 | -163.93766 | 34888 ft | 468 kts | 51° |
| 2026-05-07 00:51 | -3.11293 | -163.88671 | 34888 ft | 468 kts | 51° |
| 2026-05-07 00:52 | -3.07227 | -163.83577 | 34888 ft | 468 kts | 51° |
| 2026-05-07 00:52 | -3.03159 | -163.78481 | 34887 ft | 469 kts | 51° |
| 2026-05-07 00:53 | -2.99079 | -163.73371 | 34888 ft | 469 kts | 51° |
| 2026-05-07 00:53 | -2.95031 | -163.68301 | 34887 ft | 469 kts | 51° |
| 2026-05-07 00:54 | -2.90954 | -163.63197 | 34882 ft | 469 kts | 51° |
| 2026-05-07 00:54 | -2.86851 | -163.58059 | 34879 ft | 470 kts | 51° |
| 2026-05-07 00:55 | -2.82796 | -163.52983 | 34878 ft | 470 kts | 51° |
| 2026-05-07 00:55 | -2.78704 | -163.47861 | 34879 ft | 470 kts | 51° |
| 2026-05-07 00:56 | -2.74617 | -163.42746 | 34880 ft | 470 kts | 51° |
| 2026-05-07 00:56 | -2.70533 | -163.37635 | 34879 ft | 471 kts | 51° |
| 2026-05-07 00:57 | -2.66445 | -163.32519 | 34877 ft | 470 kts | 50° |
| 2026-05-07 00:57 | -2.62366 | -163.27416 | 34876 ft | 471 kts | 50° |